Etusivu
METAR-TAF:

METAR-TAF

Lentoasemat :

Roskilde, Tanska

Leveyspiiri: 55-35N, Pituuspiiri: 012-08E, korkeus merenpinnasta: 44 m

Tämänhetkinen sää

Tämä raportti tehtiin 44 minuuttia sitten, kello 00.50 UTC
Tuuli 3 kn pohjoisen/luoteesta
Lämpötila 12°C
Kosteus 88%
Ilmanpaine 1012 hPa
Näkyvyys 10 km tai enemmän

METAR: EKRK 190050Z AUTO 33003KT 9999 BKN230/// 12/10 Q1012

Aika: 03:34 (01:34 UTC)

Sääennuste

Tämä raportti tehtiin 2 tuntia ja 21 minuuttia sitten, kello 23.13 UTC
Ennuste voimassa 19. päivästä klo 00 UTC - 19. päivään klo 09 UTC
Tuuli 6 kn luoteesta
Näkyvyys 10 km tai enemmän
Hajanaisia pilviä 3000 ft:n korkeudessa
Ajoittain
19. päivästä klo 04 UTC - 19. päivään klo 07 UTC
Hajonneita pilviä 1200 ft:n korkeudessa

TAF: EKRK 182313Z 1900/1909 32006KT 9999 SCT030 TEMPO 1904/1907 BKN012

Säähavainnot ja -ennusteet yli 4000 lentoasemalta (METAR- ja TAF-raportit).

Käytössä olevat sääasemat on merkitty karttaan keltaisilla ja punaisilla pisteillä.

Aseta hiiri pisteen päälle nähdäksesi sääaseman nimen.

Klikkaa sitten nähdäksesi säähavainnot ja -ennusteet.

Kartan vaihtaminen: klikkaa mustalla rastilla varustettuja vihreitä pisteitä, niin voit zoomata sisään; viivalla varustettua vihreää pistettä, niin voit zoomata ulos tai vihreitä nuolia, niin pääset viereisille kartoille.


METAR-TAF: